createdAt,value
2023-02-08T00:00:44.083Z,-0.70
2023-02-08T00:03:10.897Z,-0.70
2023-02-08T00:05:38.142Z,-0.70
2023-02-08T00:08:05.592Z,-0.70
2023-02-08T00:10:32.314Z,-0.70
2023-02-08T00:12:59.057Z,-0.70
2023-02-08T00:15:25.696Z,-0.70
2023-02-08T00:17:52.369Z,-0.70
2023-02-08T00:20:19.377Z,-0.80
2023-02-08T00:22:46.215Z,-0.80
2023-02-08T00:25:12.853Z,-0.80
2023-02-08T00:27:39.684Z,-0.80
2023-02-08T00:30:07.139Z,-0.80
2023-02-08T00:32:33.847Z,-0.80
2023-02-08T00:35:00.505Z,-0.80
2023-02-08T00:37:27.188Z,-0.80
2023-02-08T00:39:53.853Z,-0.80
2023-02-08T00:42:20.543Z,-0.90
2023-02-08T00:44:47.238Z,-0.90
2023-02-08T00:47:13.950Z,-0.90
2023-02-08T00:49:40.603Z,-0.90
2023-02-08T00:52:07.265Z,-0.90
2023-02-08T00:54:33.907Z,-0.90
2023-02-08T00:57:00.678Z,-0.90
2023-02-08T00:59:27.871Z,-0.90
2023-02-08T01:01:54.668Z,-1.00
2023-02-08T01:04:21.377Z,-1.00
2023-02-08T01:06:48.055Z,-1.00
2023-02-08T01:09:14.660Z,-1.00
2023-02-08T01:11:41.371Z,-1.00
2023-02-08T01:14:08.047Z,-1.10
2023-02-08T01:16:35.096Z,-1.10
2023-02-08T01:19:03.942Z,-1.10
2023-02-08T01:21:33.735Z,-1.10
2023-02-08T01:24:01.087Z,-1.20
2023-02-08T01:26:28.452Z,-1.20
2023-02-08T01:28:56.319Z,-1.20
2023-02-08T01:31:30.919Z,-1.20
2023-02-08T01:33:58.515Z,-1.20
2023-02-08T01:36:26.623Z,-1.20
2023-02-08T01:38:53.635Z,-1.20
2023-02-08T01:41:23.613Z,-1.20
2023-02-08T01:43:59.342Z,-1.20
2023-02-08T01:46:26.091Z,-1.30
2023-02-08T01:48:54.110Z,-1.30
2023-02-08T01:51:24.016Z,-1.30
2023-02-08T01:53:52.503Z,-1.30
2023-02-08T01:56:33.977Z,-1.30
2023-02-08T01:59:05.118Z,-1.30
2023-02-08T02:01:32.715Z,-1.40
2023-02-08T02:04:07.207Z,-1.40
2023-02-08T02:06:37.010Z,-1.40
2023-02-08T02:09:16.695Z,-1.40
2023-02-08T02:11:44.136Z,-1.40
2023-02-08T02:14:11.231Z,-1.40
2023-02-08T02:16:37.912Z,-1.40
2023-02-08T02:19:15.024Z,-1.50
2023-02-08T02:21:53.341Z,-1.50
2023-02-08T02:24:48.171Z,-1.50
2023-02-08T02:27:41.899Z,-1.50
2023-02-08T02:30:08.527Z,-1.50
2023-02-08T02:32:48.769Z,-1.50
2023-02-08T02:35:41.229Z,-1.50
2023-02-08T02:38:28.549Z,-1.50
2023-02-08T02:41:40.704Z,-1.60
2023-02-08T02:44:14.629Z,-1.60
2023-02-08T02:46:48.952Z,-1.60
2023-02-08T02:49:22.915Z,-1.60
2023-02-08T02:51:58.710Z,-1.60
2023-02-08T02:54:35.932Z,-1.60
2023-02-08T02:57:06.467Z,-1.60
2023-02-08T02:59:35.644Z,-1.60
2023-02-08T03:02:03.804Z,-1.60
2023-02-08T03:04:33.611Z,-1.60
2023-02-08T03:07:03.312Z,-1.70
2023-02-08T03:09:55.354Z,-1.70
2023-02-08T03:12:36.911Z,-1.70
2023-02-08T03:15:12.263Z,-1.70
2023-02-08T03:17:59.154Z,-1.70
2023-02-08T03:20:30.810Z,-1.70
2023-02-08T03:23:04.099Z,-1.70
2023-02-08T03:25:34.968Z,-1.80
2023-02-08T03:28:25.432Z,-1.80
2023-02-08T03:31:10.957Z,-1.80
2023-02-08T03:33:47.536Z,-1.80
2023-02-08T03:36:24.961Z,-1.80
2023-02-08T03:38:54.199Z,-1.80
2023-02-08T03:41:28.501Z,-1.80
2023-02-08T03:44:10.905Z,-1.90
2023-02-08T03:46:42.062Z,-1.90
2023-02-08T03:49:15.127Z,-1.90
2023-02-08T03:51:45.047Z,-1.90
2023-02-08T03:54:20.879Z,-1.90
2023-02-08T03:57:04.165Z,-1.90
2023-02-08T03:59:38.854Z,-2.00
2023-02-08T04:02:08.218Z,-2.00
2023-02-08T04:04:38.921Z,-2.00
2023-02-08T04:07:06.574Z,-2.00
2023-02-08T04:09:33.268Z,-2.00
2023-02-08T04:11:59.977Z,-2.00
2023-02-08T04:14:26.635Z,-2.00
2023-02-08T04:16:53.492Z,-2.10
2023-02-08T04:19:20.130Z,-2.10
2023-02-08T04:21:46.806Z,-2.10
2023-02-08T04:24:13.564Z,-2.10
2023-02-08T04:26:40.326Z,-2.10
2023-02-08T04:29:06.984Z,-2.10
2023-02-08T04:31:33.723Z,-2.10
2023-02-08T04:34:00.472Z,-2.10
2023-02-08T04:36:27.165Z,-2.10
2023-02-08T04:38:53.826Z,-2.10
2023-02-08T04:41:20.523Z,-2.20
2023-02-08T04:43:47.400Z,-2.20
2023-02-08T04:46:14.152Z,-2.20
2023-02-08T04:48:40.956Z,-2.30
2023-02-08T04:51:07.659Z,-2.30
2023-02-08T04:53:34.881Z,-2.30
2023-02-08T04:56:01.542Z,-2.30
2023-02-08T04:58:28.192Z,-2.30
2023-02-08T05:00:54.797Z,-2.30
2023-02-08T05:03:21.519Z,-2.40
2023-02-08T05:05:57.513Z,-2.30
2023-02-08T05:08:24.520Z,-2.40
2023-02-08T05:10:51.186Z,-2.40
2023-02-08T05:13:17.874Z,-2.40
2023-02-08T05:15:44.539Z,-2.40
2023-02-08T05:18:11.270Z,-2.40
2023-02-08T05:20:38.003Z,-2.40
2023-02-08T05:23:05.994Z,-2.40
2023-02-08T05:25:32.656Z,-2.40
2023-02-08T05:28:00.209Z,-2.40
2023-02-08T05:30:26.887Z,-2.40
2023-02-08T05:32:53.547Z,-2.40
2023-02-08T05:35:20.239Z,-2.40
2023-02-08T05:37:46.898Z,-2.40
2023-02-08T05:40:13.545Z,-2.50
2023-02-08T05:42:42.172Z,-2.50
2023-02-08T05:45:09.165Z,-2.50
2023-02-08T05:47:36.877Z,-2.50
2023-02-08T05:50:03.748Z,-2.50
2023-02-08T05:52:30.582Z,-2.50
2023-02-08T05:54:57.241Z,-2.50
2023-02-08T05:57:23.982Z,-2.50
2023-02-08T05:59:50.586Z,-2.50
2023-02-08T06:02:17.321Z,-2.50
2023-02-08T06:04:43.987Z,-2.50
2023-02-08T06:07:10.646Z,-2.50
2023-02-08T06:09:37.506Z,-2.50
2023-02-08T06:12:04.325Z,-2.50
2023-02-08T06:14:31.095Z,-2.50
2023-02-08T06:16:57.962Z,-2.50
2023-02-08T06:19:24.678Z,-2.50
2023-02-08T06:21:51.534Z,-2.50
2023-02-08T06:24:18.355Z,-2.50
2023-02-08T06:26:45.124Z,-2.50
2023-02-08T06:29:11.928Z,-2.50
2023-02-08T06:31:38.607Z,-2.50
2023-02-08T06:34:05.325Z,-2.50
2023-02-08T06:36:32.322Z,-2.60
2023-02-08T06:38:58.989Z,-2.50
2023-02-08T06:41:25.768Z,-2.60
2023-02-08T06:43:52.449Z,-2.60
2023-02-08T06:46:19.058Z,-2.60
2023-02-08T06:48:45.691Z,-2.60
2023-02-08T06:51:12.323Z,-2.60
2023-02-08T06:53:38.998Z,-2.60
2023-02-08T06:56:06.011Z,-2.60
2023-02-08T06:58:32.737Z,-2.60
2023-02-08T07:00:59.463Z,-2.60
2023-02-08T07:03:26.176Z,-2.60
2023-02-08T07:06:04.411Z,-2.70
2023-02-08T07:08:33.239Z,-2.70
2023-02-08T07:10:59.894Z,-2.70
2023-02-08T07:13:26.550Z,-2.70
2023-02-08T07:15:53.155Z,-2.70
2023-02-08T07:18:19.798Z,-2.70
2023-02-08T07:20:46.436Z,-2.70
2023-02-08T07:23:13.153Z,-2.70
2023-02-08T07:25:39.773Z,-2.70
2023-02-08T07:28:06.487Z,-2.70
2023-02-08T07:30:33.214Z,-2.70
2023-02-08T07:32:59.929Z,-2.70
2023-02-08T07:35:26.906Z,-2.70
2023-02-08T07:37:53.833Z,-2.70
2023-02-08T07:40:20.531Z,-2.70
2023-02-08T07:42:47.205Z,-2.70
2023-02-08T07:45:13.876Z,-2.70
2023-02-08T07:47:40.543Z,-2.70
2023-02-08T07:50:07.333Z,-2.70
2023-02-08T07:52:34.094Z,-2.70
2023-02-08T07:55:00.734Z,-2.70
2023-02-08T07:57:27.413Z,-2.70
2023-02-08T07:59:54.326Z,-2.60
2023-02-08T08:02:21.115Z,-2.60
2023-02-08T08:04:47.911Z,-2.60
2023-02-08T08:07:14.587Z,-2.60
2023-02-08T08:09:41.296Z,-2.50
2023-02-08T08:12:07.995Z,-2.50
2023-02-08T08:14:34.629Z,-2.50
2023-02-08T08:17:01.271Z,-2.50
2023-02-08T08:19:28.404Z,-2.40
2023-02-08T08:21:58.197Z,-2.40
2023-02-08T08:24:25.029Z,-2.40
2023-02-08T08:26:51.700Z,-2.40
2023-02-08T08:29:18.413Z,-2.30
2023-02-08T08:31:45.110Z,-2.30
2023-02-08T08:34:11.967Z,-2.20
2023-02-08T08:36:38.635Z,-2.20
2023-02-08T08:39:05.334Z,-2.20
2023-02-08T08:41:32.106Z,-2.20
2023-02-08T08:43:58.795Z,-2.10
2023-02-08T08:46:25.487Z,-2.10
2023-02-08T08:48:52.395Z,-2.00
2023-02-08T08:51:19.042Z,-2.00
2023-02-08T08:53:45.711Z,-2.00
2023-02-08T08:56:12.360Z,-1.90
2023-02-08T08:58:39.095Z,-1.90
2023-02-08T09:01:05.842Z,-1.80
2023-02-08T09:03:32.655Z,-1.80
2023-02-08T09:05:59.457Z,-1.70
2023-02-08T09:08:26.266Z,-1.70
2023-02-08T09:10:52.988Z,-1.70
2023-02-08T09:13:21.246Z,-1.60
2023-02-08T09:15:49.154Z,-1.60
2023-02-08T09:18:16.236Z,-1.60
2023-02-08T09:20:43.504Z,-1.50
2023-02-08T09:23:10.443Z,-1.50
2023-02-08T09:25:37.818Z,-1.40
2023-02-08T09:28:05.233Z,-1.40
2023-02-08T09:30:32.490Z,-1.40
2023-02-08T09:32:59.225Z,-1.40
2023-02-08T09:35:25.890Z,-1.30
2023-02-08T09:37:58.082Z,-1.30
2023-02-08T09:40:27.616Z,-1.30
2023-02-08T09:43:20.168Z,-1.30
2023-02-08T09:46:00.525Z,-1.20
2023-02-08T09:48:38.855Z,-1.20
2023-02-08T09:51:30.515Z,-1.10
2023-02-08T09:54:07.277Z,-1.10
2023-02-08T09:56:40.224Z,-1.00
2023-02-08T09:59:16.001Z,-0.90
2023-02-08T10:01:42.968Z,-0.90
2023-02-08T10:04:20.445Z,-0.90
2023-02-08T10:06:49.685Z,-0.90
2023-02-08T10:09:22.369Z,-0.90
2023-02-08T10:11:58.344Z,-0.90
2023-02-08T10:14:41.073Z,-0.80
2023-02-08T10:17:40.688Z,-0.70
2023-02-08T10:20:19.474Z,-0.70
2023-02-08T10:23:22.433Z,-0.60
2023-02-08T10:26:21.961Z,-0.60
2023-02-08T10:29:00.638Z,-0.60
2023-02-08T10:31:39.758Z,-0.60
2023-02-08T10:34:24.643Z,-0.50
2023-02-08T10:36:52.274Z,-0.50
2023-02-08T10:39:25.883Z,-0.40
2023-02-08T10:41:52.868Z,-0.40
2023-02-08T10:44:19.488Z,-0.40
2023-02-08T10:47:00.468Z,-0.40
2023-02-08T10:49:30.128Z,-0.30
2023-02-08T10:51:56.915Z,-0.30
2023-02-08T10:54:23.648Z,-0.20
2023-02-08T10:56:57.573Z,-0.20
2023-02-08T10:59:49.226Z,-0.20
2023-02-08T11:02:50.753Z,-0.20
2023-02-08T11:05:37.867Z,-0.10
2023-02-08T11:08:16.910Z,-0.10
2023-02-08T11:10:46.484Z,-0.10
2023-02-08T11:13:13.089Z,-0.10
2023-02-08T11:15:52.716Z,-0.10
2023-02-08T11:18:36.151Z,0.00
2023-02-08T11:21:04.665Z,0.10
2023-02-08T11:23:38.043Z,0.10
2023-02-08T11:26:37.116Z,0.10
2023-02-08T11:29:11.632Z,0.20
2023-02-08T11:31:40.633Z,0.20
2023-02-08T11:34:23.817Z,0.20
2023-02-08T11:36:50.614Z,0.30
2023-02-08T11:39:28.070Z,0.30
2023-02-08T11:41:58.989Z,0.40
2023-02-08T11:44:33.543Z,0.40
2023-02-08T11:47:02.771Z,0.50
2023-02-08T11:49:44.206Z,0.50
2023-02-08T11:52:35.518Z,0.50
2023-02-08T11:55:19.027Z,0.50
2023-02-08T11:58:11.526Z,0.50
2023-02-08T12:00:40.144Z,0.60
2023-02-08T12:03:18.388Z,0.60
2023-02-08T12:06:12.041Z,0.60
2023-02-08T12:08:53.801Z,0.70
2023-02-08T12:11:27.123Z,0.70
2023-02-08T12:14:11.605Z,0.70
2023-02-08T12:17:03.027Z,0.70
2023-02-08T12:19:59.823Z,0.80
2023-02-08T12:22:28.556Z,0.80
2023-02-08T12:25:23.530Z,0.90
2023-02-08T12:28:09.771Z,0.90
2023-02-08T12:30:49.239Z,0.90
2023-02-08T12:33:18.798Z,1.00
2023-02-08T12:36:05.463Z,1.00
2023-02-08T12:39:18.376Z,1.00
2023-02-08T12:41:54.691Z,1.00
2023-02-08T12:44:30.826Z,1.10
2023-02-08T12:47:28.269Z,1.10
2023-02-08T12:50:00.949Z,1.10
2023-02-08T12:52:41.455Z,1.20
2023-02-08T12:55:19.031Z,1.20
2023-02-08T12:57:52.904Z,1.30
2023-02-08T13:00:29.059Z,1.30
2023-02-08T13:03:53.073Z,1.20
2023-02-08T13:06:27.236Z,1.30
2023-02-08T13:09:13.323Z,1.30
2023-02-08T13:11:51.704Z,1.30
2023-02-08T13:15:28.524Z,1.40
2023-02-08T13:18:04.250Z,1.40
2023-02-08T13:20:47.940Z,1.50
2023-02-08T13:23:25.794Z,1.50
2023-02-08T13:26:00.793Z,1.50
2023-02-08T13:28:28.319Z,1.50
2023-02-08T13:30:59.531Z,1.50
2023-02-08T13:34:00.853Z,1.60
2023-02-08T13:36:34.681Z,1.60
2023-02-08T13:39:05.580Z,1.60
2023-02-08T13:41:33.758Z,1.60
2023-02-08T13:44:09.286Z,1.60
2023-02-08T13:46:50.362Z,1.60
2023-02-08T13:49:49.522Z,1.70
2023-02-08T13:52:47.099Z,1.70
2023-02-08T13:55:38.211Z,1.70
2023-02-08T13:58:26.418Z,1.70
2023-02-08T14:01:01.008Z,1.70
2023-02-08T14:03:30.429Z,1.70
2023-02-08T14:05:59.022Z,1.70
2023-02-08T14:08:28.404Z,1.80
2023-02-08T14:11:14.411Z,1.80
2023-02-08T14:13:59.761Z,1.80
2023-02-08T14:16:29.516Z,1.80
2023-02-08T14:19:20.774Z,1.90
2023-02-08T14:22:02.256Z,1.90
2023-02-08T14:24:34.570Z,1.90
2023-02-08T14:27:09.878Z,1.90
2023-02-08T14:29:37.260Z,1.90
2023-02-08T14:32:05.032Z,2.00
2023-02-08T14:34:35.748Z,2.00
2023-02-08T14:37:11.022Z,2.00
2023-02-08T14:39:37.884Z,2.00
2023-02-08T14:42:08.630Z,2.00
2023-02-08T14:44:38.326Z,2.00
2023-02-08T14:47:12.765Z,2.00
2023-02-08T14:49:44.916Z,2.00
2023-02-08T14:52:20.127Z,2.00
2023-02-08T14:54:48.585Z,2.00
2023-02-08T14:57:26.391Z,2.00
2023-02-08T14:59:54.103Z,2.00
2023-02-08T15:02:25.739Z,2.00
2023-02-08T15:04:53.010Z,2.00
2023-02-08T15:07:45.942Z,2.00
2023-02-08T15:10:15.654Z,2.00
2023-02-08T15:12:45.835Z,2.00
2023-02-08T15:15:22.561Z,2.00
2023-02-08T15:17:51.250Z,2.00
2023-02-08T15:20:21.602Z,2.00
2023-02-08T15:22:48.645Z,1.90
2023-02-08T15:25:29.980Z,1.90
2023-02-08T15:28:18.961Z,1.90
2023-02-08T15:30:52.720Z,1.90
2023-02-08T15:33:21.100Z,1.90
2023-02-08T15:35:57.668Z,1.90
2023-02-08T15:38:24.596Z,1.90
2023-02-08T15:41:09.278Z,1.90
2023-02-08T15:43:37.530Z,1.90
2023-02-08T15:46:25.531Z,1.80
2023-02-08T15:48:53.927Z,1.80
2023-02-08T15:51:23.168Z,1.80
2023-02-08T15:53:53.297Z,1.80
2023-02-08T15:56:35.745Z,1.80
2023-02-08T15:59:05.483Z,1.70
2023-02-08T16:01:32.578Z,1.70
2023-02-08T16:04:05.976Z,1.70
2023-02-08T16:06:44.618Z,1.70
2023-02-08T16:09:19.888Z,1.60
2023-02-08T16:11:50.030Z,1.60
2023-02-08T16:14:18.100Z,1.60
2023-02-08T16:16:48.548Z,1.60
2023-02-08T16:19:31.239Z,1.60
2023-02-08T16:22:25.540Z,1.50
2023-02-08T16:24:52.259Z,1.50
2023-02-08T16:27:30.249Z,1.40
2023-02-08T16:29:57.479Z,1.40
2023-02-08T16:32:33.524Z,1.40
2023-02-08T16:35:10.872Z,1.40
2023-02-08T16:37:37.655Z,1.30
2023-02-08T16:40:27.145Z,1.30
2023-02-08T16:43:18.108Z,1.20
2023-02-08T16:45:44.802Z,1.20
2023-02-08T16:48:33.276Z,1.20
2023-02-08T16:51:00.712Z,1.10
2023-02-08T16:53:41.238Z,1.00
2023-02-08T16:56:09.853Z,1.00
2023-02-08T16:58:37.008Z,0.90
2023-02-08T17:01:04.569Z,0.90
2023-02-08T17:03:32.710Z,0.80
2023-02-08T17:06:00.975Z,0.80
2023-02-08T17:08:27.939Z,0.80
2023-02-08T17:10:58.755Z,0.70
2023-02-08T17:13:28.744Z,0.70
2023-02-08T17:15:55.686Z,0.70
2023-02-08T17:18:22.359Z,0.60
2023-02-08T17:20:49.108Z,0.60
2023-02-08T17:23:15.897Z,0.50
2023-02-08T17:25:43.476Z,0.50
2023-02-08T17:28:18.554Z,0.50
2023-02-08T17:30:46.238Z,0.40
2023-02-08T17:33:20.012Z,0.40
2023-02-08T17:35:49.834Z,0.40
2023-02-08T17:38:17.401Z,0.30
2023-02-08T17:40:44.690Z,0.30
2023-02-08T17:43:12.953Z,0.30
2023-02-08T17:45:41.999Z,0.30
2023-02-08T17:48:09.205Z,0.20
2023-02-08T17:50:36.742Z,0.20
2023-02-08T17:53:04.052Z,0.20
2023-02-08T17:55:31.275Z,0.20
2023-02-08T17:57:58.395Z,0.10
2023-02-08T18:00:25.900Z,0.10
2023-02-08T18:02:55.512Z,0.10
2023-02-08T18:05:26.879Z,0.10
2023-02-08T18:07:55.648Z,0.10
2023-02-08T18:10:23.788Z,0.00
2023-02-08T18:12:50.753Z,0.00
2023-02-08T18:15:21.131Z,0.00
2023-02-08T18:17:50.234Z,0.00
2023-02-08T18:20:17.673Z,-0.10
2023-02-08T18:22:44.672Z,-0.10
2023-02-08T18:25:13.334Z,-0.10
2023-02-08T18:27:40.224Z,-0.10
2023-02-08T18:30:07.552Z,-0.10
2023-02-08T18:32:34.327Z,-0.20
2023-02-08T18:35:03.777Z,-0.20
2023-02-08T18:37:31.867Z,-0.20
2023-02-08T18:39:58.927Z,-0.20
2023-02-08T18:42:25.747Z,-0.20
2023-02-08T18:44:52.395Z,-0.20
2023-02-08T18:47:19.191Z,-0.20
2023-02-08T18:49:47.644Z,-0.30
2023-02-08T18:52:15.996Z,-0.30
2023-02-08T18:54:42.767Z,-0.30
2023-02-08T18:57:10.708Z,-0.30
2023-02-08T18:59:39.412Z,-0.40
2023-02-08T19:02:07.812Z,-0.40
2023-02-08T19:04:38.646Z,-0.40
2023-02-08T19:07:05.962Z,-0.40
2023-02-08T19:09:36.185Z,-0.40
2023-02-08T19:12:03.311Z,-0.40
2023-02-08T19:14:30.110Z,-0.40
2023-02-08T19:16:56.927Z,-0.50
2023-02-08T19:19:23.582Z,-0.50
2023-02-08T19:21:50.237Z,-0.40
2023-02-08T19:24:19.525Z,-0.50
2023-02-08T19:26:46.638Z,-0.50
2023-02-08T19:29:17.997Z,-0.50
2023-02-08T19:31:45.698Z,-0.50
2023-02-08T19:34:13.425Z,-0.50
2023-02-08T19:36:46.790Z,-0.50
2023-02-08T19:39:16.160Z,-0.40
2023-02-08T19:41:43.280Z,-0.50
2023-02-08T19:44:13.234Z,-0.50
2023-02-08T19:46:42.168Z,-0.50
2023-02-08T19:49:11.643Z,-0.50
2023-02-08T19:51:38.386Z,-0.50
2023-02-08T19:54:08.533Z,-0.50
2023-02-08T19:56:35.264Z,-0.50
2023-02-08T19:59:08.259Z,-0.50
2023-02-08T20:01:35.519Z,-0.50
2023-02-08T20:04:03.348Z,-0.50
2023-02-08T20:06:33.759Z,-0.50
2023-02-08T20:09:00.625Z,-0.50
2023-02-08T20:11:30.390Z,-0.50
2023-02-08T20:13:58.778Z,-0.50
2023-02-08T20:16:29.437Z,-0.50
2023-02-08T20:18:58.657Z,-0.50
2023-02-08T20:21:25.540Z,-0.50
2023-02-08T20:23:52.526Z,-0.50
2023-02-08T20:26:27.659Z,-0.50
2023-02-08T20:28:57.711Z,-0.60
2023-02-08T20:31:26.564Z,-0.60
2023-02-08T20:33:53.807Z,-0.60
2023-02-08T20:36:25.684Z,-0.60
2023-02-08T20:38:54.125Z,-0.60
2023-02-08T20:41:22.346Z,-0.60
2023-02-08T20:43:49.387Z,-0.60
2023-02-08T20:46:23.622Z,-0.70
2023-02-08T20:48:51.475Z,-0.70
2023-02-08T20:51:20.387Z,-0.70
2023-02-08T20:53:48.133Z,-0.70
2023-02-08T20:56:17.722Z,-0.70
2023-02-08T20:58:45.411Z,-0.80
2023-02-08T21:01:19.163Z,-0.80
2023-02-08T21:03:46.098Z,-0.80
2023-02-08T21:06:15.353Z,-0.80
2023-02-08T21:08:42.649Z,-0.80
2023-02-08T21:11:09.688Z,-0.80
2023-02-08T21:13:37.284Z,-0.80
2023-02-08T21:16:06.197Z,-0.80
2023-02-08T21:18:32.987Z,-0.80
2023-02-08T21:20:59.626Z,-0.80
2023-02-08T21:23:26.420Z,-0.80
2023-02-08T21:25:53.517Z,-0.80
2023-02-08T21:28:20.362Z,-0.80
2023-02-08T21:31:02.053Z,-0.80
2023-02-08T21:33:29.214Z,-0.80
2023-02-08T21:35:56.226Z,-0.80
2023-02-08T21:38:23.254Z,-0.80
2023-02-08T21:40:49.901Z,-0.80
2023-02-08T21:43:16.536Z,-0.90
2023-02-08T21:45:43.341Z,-0.90
2023-02-08T21:48:10.128Z,-0.90
2023-02-08T21:50:57.220Z,-0.90
2023-02-08T21:53:52.912Z,-0.90
2023-02-08T21:56:19.654Z,-0.90
2023-02-08T21:58:46.299Z,-0.90
2023-02-08T22:01:13.006Z,-0.90
2023-02-08T22:03:39.652Z,-0.90
2023-02-08T22:06:25.179Z,-1.00
2023-02-08T22:08:51.857Z,-1.00
2023-02-08T22:11:18.524Z,-1.00
2023-02-08T22:13:45.196Z,-1.00
2023-02-08T22:16:11.981Z,-1.00
2023-02-08T22:18:41.484Z,-1.00
2023-02-08T22:21:08.846Z,-1.00
2023-02-08T22:23:35.534Z,-1.00
2023-02-08T22:26:07.589Z,-1.10
2023-02-08T22:28:34.387Z,-1.10
2023-02-08T22:31:01.672Z,-1.10
2023-02-08T22:33:29.184Z,-1.10
2023-02-08T22:35:56.087Z,-1.10
2023-02-08T22:38:23.844Z,-1.20
2023-02-08T22:40:50.803Z,-1.20
2023-02-08T22:43:17.654Z,-1.20
2023-02-08T22:45:44.320Z,-1.20
2023-02-08T22:48:11.085Z,-1.20
2023-02-08T22:50:38.810Z,-1.20
2023-02-08T22:53:05.494Z,-1.30
2023-02-08T22:55:32.136Z,-1.30
2023-02-08T22:57:58.777Z,-1.30
2023-02-08T23:00:25.551Z,-1.30
2023-02-08T23:02:52.388Z,-1.40
2023-02-08T23:05:19.293Z,-1.40
2023-02-08T23:07:45.960Z,-1.40
2023-02-08T23:10:12.865Z,-1.40
2023-02-08T23:12:39.956Z,-1.40
2023-02-08T23:15:06.971Z,-1.40
2023-02-08T23:17:35.622Z,-1.50
2023-02-08T23:20:02.268Z,-1.50
2023-02-08T23:22:28.949Z,-1.50
2023-02-08T23:24:55.743Z,-1.50
2023-02-08T23:27:22.403Z,-1.50
2023-02-08T23:29:49.052Z,-1.50
2023-02-08T23:32:15.721Z,-1.50
2023-02-08T23:34:42.372Z,-1.50
2023-02-08T23:37:09.096Z,-1.50
2023-02-08T23:39:35.734Z,-1.60
2023-02-08T23:42:02.526Z,-1.60
2023-02-08T23:44:29.263Z,-1.60
2023-02-08T23:46:56.013Z,-1.60
2023-02-08T23:49:22.775Z,-1.60
2023-02-08T23:51:49.426Z,-1.60
2023-02-08T23:54:16.103Z,-1.70
2023-02-08T23:56:42.760Z,-1.70
2023-02-08T23:59:10.838Z,-1.70
